sensor_id;sensor_type;location;lat;lon;timestamp;pressure;altitude;pressure_sealevel;temperature;humidity
10852;BME280;5479;52.046;6.314;2023-05-17T00:00:02;102307.31;;;8.24;100.00
10852;BME280;5479;52.046;6.314;2023-05-17T00:02:32;102314.38;;;8.24;100.00
10852;BME280;5479;52.046;6.314;2023-05-17T00:05:00;102316.16;;;8.23;100.00
10852;BME280;5479;52.046;6.314;2023-05-17T00:07:28;102316.06;;;8.26;100.00
10852;BME280;5479;52.046;6.314;2023-05-17T00:09:56;102309.13;;;8.22;100.00
10852;BME280;5479;52.046;6.314;2023-05-17T00:12:24;102312.66;;;8.21;100.00
10852;BME280;5479;52.046;6.314;2023-05-17T00:14:52;102306.50;;;8.22;100.00
10852;BME280;5479;52.046;6.314;2023-05-17T00:17:22;102308.31;;;8.19;100.00
10852;BME280;5479;52.046;6.314;2023-05-17T00:19:50;102311.91;;;8.16;100.00
10852;BME280;5479;52.046;6.314;2023-05-17T00:22:18;102314.72;;;8.10;100.00
10852;BME280;5479;52.046;6.314;2023-05-17T00:24:45;102304.06;;;8.13;100.00
10852;BME280;5479;52.046;6.314;2023-05-17T00:27:14;102305.94;;;8.10;100.00
10852;BME280;5479;52.046;6.314;2023-05-17T00:29:41;102299.84;;;8.08;100.00
10852;BME280;5479;52.046;6.314;2023-05-17T00:32:09;102293.75;;;8.04;100.00
10852;BME280;5479;52.046;6.314;2023-05-17T00:34:39;102306.97;;;8.03;100.00
10852;BME280;5479;52.046;6.314;2023-05-17T00:37:07;102306.13;;;8.02;100.00
10852;BME280;5479;52.046;6.314;2023-05-17T00:39:34;102303.50;;;8.01;100.00
10852;BME280;5479;52.046;6.314;2023-05-17T00:42:03;102314.25;;;7.93;100.00
10852;BME280;5479;52.046;6.314;2023-05-17T00:44:31;102304.59;;;7.92;100.00
10852;BME280;5479;52.046;6.314;2023-05-17T00:46:59;102308.16;;;7.91;100.00
10852;BME280;5479;52.046;6.314;2023-05-17T00:49:28;102297.69;;;7.88;100.00
10852;BME280;5479;52.046;6.314;2023-05-17T00:51:58;102301.22;;;7.87;100.00
10852;BME280;5479;52.046;6.314;2023-05-17T00:54:26;102303.84;;;7.87;100.00
10852;BME280;5479;52.046;6.314;2023-05-17T00:56:55;102287.22;;;7.85;100.00
10852;BME280;5479;52.046;6.314;2023-05-17T00:59:25;102293.34;;;7.85;100.00
10852;BME280;5479;52.046;6.314;2023-05-17T01:01:53;102288.94;;;7.86;100.00
10852;BME280;5479;52.046;6.314;2023-05-17T01:04:23;102295.06;;;7.86;100.00
10852;BME280;5479;52.046;6.314;2023-05-17T01:06:51;102297.69;;;7.88;100.00
10852;BME280;5479;52.046;6.314;2023-05-17T01:09:21;102302.13;;;7.86;100.00
10852;BME280;5479;52.046;6.314;2023-05-17T01:11:54;102307.41;;;7.86;100.00
10852;BME280;5479;52.046;6.314;2023-05-17T01:14:32;102298.69;;;7.82;100.00
10852;BME280;5479;52.046;6.314;2023-05-17T01:17:05;102306.66;;;7.81;100.00
10852;BME280;5479;52.046;6.314;2023-05-17T01:19:54;102301.41;;;7.79;100.00
10852;BME280;5479;52.046;6.314;2023-05-17T01:22:35;102308.44;;;7.79;100.00
10852;BME280;5479;52.046;6.314;2023-05-17T01:25:26;102295.19;;;7.82;100.00
10852;BME280;5479;52.046;6.314;2023-05-17T01:27:58;102295.25;;;7.79;100.00
10852;BME280;5479;52.046;6.314;2023-05-17T01:30:28;102296.19;;;7.78;100.00
10852;BME280;5479;52.046;6.314;2023-05-17T01:32:59;102296.25;;;7.75;100.00
10852;BME280;5479;52.046;6.314;2023-05-17T01:35:29;102301.53;;;7.75;100.00
10852;BME280;5479;52.046;6.314;2023-05-17T01:37:56;102301.38;;;7.81;100.00
10852;BME280;5479;52.046;6.314;2023-05-17T01:40:24;102310.88;;;7.88;100.00
10852;BME280;5479;52.046;6.314;2023-05-17T01:42:58;102304.38;;;8.01;100.00
10852;BME280;5479;52.046;6.314;2023-05-17T01:45:34;102295.38;;;8.10;100.00
10852;BME280;5479;52.046;6.314;2023-05-17T01:48:14;102306.53;;;8.21;100.00
10852;BME280;5479;52.046;6.314;2023-05-17T01:50:45;102308.06;;;8.31;100.00
10852;BME280;5479;52.046;6.314;2023-05-17T01:53:19;102302.56;;;8.38;100.00
10852;BME280;5479;52.046;6.314;2023-05-17T01:55:49;102306.03;;;8.40;100.00
10852;BME280;5479;52.046;6.314;2023-05-17T01:58:20;102307.41;;;8.55;100.00
10852;BME280;5479;52.046;6.314;2023-05-17T02:00:52;102300.09;;;8.65;100.00
10852;BME280;5479;52.046;6.314;2023-05-17T02:03:22;102316.53;;;8.76;100.00
10852;BME280;5479;52.046;6.314;2023-05-17T02:05:50;102309.25;;;8.84;100.00
10852;BME280;5479;52.046;6.314;2023-05-17T02:08:18;102305.63;;;8.88;100.00
10852;BME280;5479;52.046;6.314;2023-05-17T02:10:46;102312.69;;;8.86;100.00
10852;BME280;5479;52.046;6.314;2023-05-17T02:13:14;102304.13;;;8.78;100.00
10852;BME280;5479;52.046;6.314;2023-05-17T02:15:44;102309.94;;;8.90;100.00
10852;BME280;5479;52.046;6.314;2023-05-17T02:18:12;102309.09;;;8.90;100.00
10852;BME280;5479;52.046;6.314;2023-05-17T02:20:39;102314.59;;;8.81;100.00
10852;BME280;5479;52.046;6.314;2023-05-17T02:23:07;102311.72;;;8.90;100.00
10852;BME280;5479;52.046;6.314;2023-05-17T02:25:35;102312.31;;;8.99;100.00
10852;BME280;5479;52.046;6.314;2023-05-17T02:28:03;102314.19;;;8.96;100.00
10852;BME280;5479;52.046;6.314;2023-05-17T02:30:31;102328.13;;;9.01;100.00
10852;BME280;5479;52.046;6.314;2023-05-17T02:33:01;102328.56;;;9.17;100.00
10852;BME280;5479;52.046;6.314;2023-05-17T02:35:28;102336.63;;;9.12;100.00
10852;BME280;5479;52.046;6.314;2023-05-17T02:37:56;102342.84;;;9.09;100.00
10852;BME280;5479;52.046;6.314;2023-05-17T02:40:24;102345.47;;;9.11;100.00
10852;BME280;5479;52.046;6.314;2023-05-17T02:42:52;102352.81;;;9.00;100.00
10852;BME280;5479;52.046;6.314;2023-05-17T02:45:20;102344.91;;;9.00;100.00
10852;BME280;5479;52.046;6.314;2023-05-17T02:47:48;102340.34;;;9.05;100.00
10852;BME280;5479;52.046;6.314;2023-05-17T02:50:17;102341.13;;;9.08;100.00
10852;BME280;5479;52.046;6.314;2023-05-17T02:52:45;102341.38;;;8.99;100.00
10852;BME280;5479;52.046;6.314;2023-05-17T02:55:13;102334.31;;;9.00;100.00
10852;BME280;5479;52.046;6.314;2023-05-17T02:57:41;102356.56;;;8.93;100.00
10852;BME280;5479;52.046;6.314;2023-05-17T03:00:09;102350.31;;;8.95;100.00
10852;BME280;5479;52.046;6.314;2023-05-17T03:02:37;102347.69;;;8.94;100.00
10852;BME280;5479;52.046;6.314;2023-05-17T03:05:06;102365.47;;;8.89;100.00
10852;BME280;5479;52.046;6.314;2023-05-17T03:07:36;102363.38;;;9.00;100.00
10852;BME280;5479;52.046;6.314;2023-05-17T03:10:05;102363.56;;;8.94;100.00
10852;BME280;5479;52.046;6.314;2023-05-17T03:12:33;102370.59;;;8.95;100.00
10852;BME280;5479;52.046;6.314;2023-05-17T03:15:01;102368.06;;;8.90;100.00
10852;BME280;5479;52.046;6.314;2023-05-17T03:17:29;102363.75;;;8.88;100.00
10852;BME280;5479;52.046;6.314;2023-05-17T03:19:57;102370.75;;;8.89;100.00
10852;BME280;5479;52.046;6.314;2023-05-17T03:22:25;102371.75;;;8.85;100.00
10852;BME280;5479;52.046;6.314;2023-05-17T03:24:55;102379.25;;;9.00;100.00
10852;BME280;5479;52.046;6.314;2023-05-17T03:27:22;102382.03;;;8.94;100.00
10852;BME280;5479;52.046;6.314;2023-05-17T03:29:50;102381.06;;;8.98;100.00
10852;BME280;5479;52.046;6.314;2023-05-17T03:32:18;102384.78;;;8.91;100.00
10852;BME280;5479;52.046;6.314;2023-05-17T03:34:46;102385.19;;;8.76;100.00
10852;BME280;5479;52.046;6.314;2023-05-17T03:37:14;102388.16;;;8.64;100.00
10852;BME280;5479;52.046;6.314;2023-05-17T03:39:42;102394.50;;;8.57;100.00
10852;BME280;5479;52.046;6.314;2023-05-17T03:42:12;102401.44;;;8.61;100.00
10852;BME280;5479;52.046;6.314;2023-05-17T03:44:40;102398.00;;;8.59;100.00
10852;BME280;5479;52.046;6.314;2023-05-17T03:47:08;102408.78;;;8.49;100.00
10852;BME280;5479;52.046;6.314;2023-05-17T03:49:36;102402.63;;;8.49;100.00
10852;BME280;5479;52.046;6.314;2023-05-17T03:52:04;102402.75;;;8.43;100.00
10852;BME280;5479;52.046;6.314;2023-05-17T03:54:32;102409.00;;;8.40;100.00
10852;BME280;5479;52.046;6.314;2023-05-17T03:57:00;102410.88;;;8.35;100.00
10852;BME280;5479;52.046;6.314;2023-05-17T03:59:31;102409.31;;;8.28;100.00
10852;BME280;5479;52.046;6.314;2023-05-17T04:01:59;102415.38;;;8.32;100.00
10852;BME280;5479;52.046;6.314;2023-05-17T04:04:27;102410.81;;;8.38;100.00
10852;BME280;5479;52.046;6.314;2023-05-17T04:06:55;102409.56;;;8.53;100.00
10852;BME280;5479;52.046;6.314;2023-05-17T04:09:23;102420.81;;;8.60;100.00
10852;BME280;5479;52.046;6.314;2023-05-17T04:11:51;102420.69;;;8.66;100.00
10852;BME280;5479;52.046;6.314;2023-05-17T04:14:19;102414.53;;;8.65;100.00
10852;BME280;5479;52.046;6.314;2023-05-17T04:16:49;102422.66;;;8.58;100.00
10852;BME280;5479;52.046;6.314;2023-05-17T04:19:17;102426.38;;;8.51;100.00
10852;BME280;5479;52.046;6.314;2023-05-17T04:21:44;102419.41;;;8.46;100.00
10852;BME280;5479;52.046;6.314;2023-05-17T04:24:12;102430.84;;;8.47;100.00
10852;BME280;5479;52.046;6.314;2023-05-17T04:26:40;102424.75;;;8.45;100.00
10852;BME280;5479;52.046;6.314;2023-05-17T04:29:08;102430.84;;;8.45;100.00
10852;BME280;5479;52.046;6.314;2023-05-17T04:31:36;102430.97;;;8.42;100.00
10852;BME280;5479;52.046;6.314;2023-05-17T04:34:05;102437.06;;;8.44;100.00
10852;BME280;5479;52.046;6.314;2023-05-17T04:36:33;102440.59;;;8.43;100.00
10852;BME280;5479;52.046;6.314;2023-05-17T04:39:01;102438.78;;;8.45;100.00
10852;BME280;5479;52.046;6.314;2023-05-17T04:41:31;102451.84;;;8.52;100.00
10852;BME280;5479;52.046;6.314;2023-05-17T04:43:59;102449.19;;;8.52;100.00
10852;BME280;5479;52.046;6.314;2023-05-17T04:46:27;102445.59;;;8.56;100.00
10852;BME280;5479;52.046;6.314;2023-05-17T04:48:55;102448.97;;;8.61;100.00
10852;BME280;5479;52.046;6.314;2023-05-17T04:51:24;102462.06;;;8.65;100.00
10852;BME280;5479;52.046;6.314;2023-05-17T04:53:57;102464.59;;;8.70;100.00
10852;BME280;5479;52.046;6.314;2023-05-17T04:56:29;102462.69;;;8.75;100.00
10852;BME280;5479;52.046;6.314;2023-05-17T04:58:57;102466.06;;;8.81;100.00
10852;BME280;5479;52.046;6.314;2023-05-17T05:01:24;102467.75;;;8.84;100.00
10852;BME280;5479;52.046;6.314;2023-05-17T05:03:57;102476.13;;;9.01;100.00
10852;BME280;5479;52.046;6.314;2023-05-17T05:06:26;102474.38;;;9.00;100.00
10852;BME280;5479;52.046;6.314;2023-05-17T05:08:54;102482.16;;;9.04;100.00
10852;BME280;5479;52.046;6.314;2023-05-17T05:11:22;102482.03;;;9.10;100.00
10852;BME280;5479;52.046;6.314;2023-05-17T05:13:50;102479.25;;;9.15;100.00
10852;BME280;5479;52.046;6.314;2023-05-17T05:16:18;102488.75;;;9.22;100.00
10852;BME280;5479;52.046;6.314;2023-05-17T05:18:45;102488.34;;;9.37;100.00
10852;BME280;5479;52.046;6.314;2023-05-17T05:21:13;102496.28;;;9.37;100.00
10852;BME280;5479;52.046;6.314;2023-05-17T05:23:43;102494.44;;;9.39;100.00
10852;BME280;5479;52.046;6.314;2023-05-17T05:26:10;102503.03;;;9.47;100.00
10852;BME280;5479;52.046;6.314;2023-05-17T05:28:38;102505.50;;;9.53;100.00
10852;BME280;5479;52.046;6.314;2023-05-17T05:31:06;102506.00;;;9.67;100.00
10852;BME280;5479;52.046;6.314;2023-05-17T05:33:34;102507.19;;;9.57;100.00
10852;BME280;5479;52.046;6.314;2023-05-17T05:36:03;102518.03;;;9.78;100.00
10852;BME280;5479;52.046;6.314;2023-05-17T05:38:31;102515.78;;;9.65;100.00
10852;BME280;5479;52.046;6.314;2023-05-17T05:41:00;102518.13;;;9.75;100.00
10852;BME280;5479;52.046;6.314;2023-05-17T05:43:28;102520.03;;;10.00;100.00
10852;BME280;5479;52.046;6.314;2023-05-17T05:45:56;102529.84;;;9.97;100.00
10852;BME280;5479;52.046;6.314;2023-05-17T05:48:24;102526.59;;;10.18;100.00
10852;BME280;5479;52.046;6.314;2023-05-17T05:50:52;102534.63;;;10.15;100.00
10852;BME280;5479;52.046;6.314;2023-05-17T05:53:20;102534.03;;;10.04;100.00
10852;BME280;5479;52.046;6.314;2023-05-17T05:55:51;102540.97;;;10.08;100.00
10852;BME280;5479;52.046;6.314;2023-05-17T05:58:21;102544.84;;;10.27;100.00
10852;BME280;5479;52.046;6.314;2023-05-17T06:00:49;102556.50;;;10.49;100.00
10852;BME280;5479;52.046;6.314;2023-05-17T06:03:17;102553.47;;;10.61;100.00
10852;BME280;5479;52.046;6.314;2023-05-17T06:05:45;102548.81;;;10.69;100.00
10852;BME280;5479;52.046;6.314;2023-05-17T06:08:13;102555.78;;;10.72;100.00
10852;BME280;5479;52.046;6.314;2023-05-17T06:10:40;102550.22;;;10.79;100.00
10852;BME280;5479;52.046;6.314;2023-05-17T06:13:08;102555.91;;;10.95;100.00
10852;BME280;5479;52.046;6.314;2023-05-17T06:15:39;102565.03;;;11.13;100.00
10852;BME280;5479;52.046;6.314;2023-05-17T06:18:07;102566.66;;;11.17;100.00
10852;BME280;5479;52.046;6.314;2023-05-17T06:20:37;102565.66;;;11.21;100.00
10852;BME280;5479;52.046;6.314;2023-05-17T06:23:04;102565.00;;;11.39;100.00
10852;BME280;5479;52.046;6.314;2023-05-17T06:25:32;102569.91;;;11.25;100.00
10852;BME280;5479;52.046;6.314;2023-05-17T06:28:00;102568.41;;;11.42;100.00
10852;BME280;5479;52.046;6.314;2023-05-17T06:30:29;102575.75;;;11.10;100.00
10852;BME280;5479;52.046;6.314;2023-05-17T06:32:58;102574.41;;;10.97;100.00
10852;BME280;5479;52.046;6.314;2023-05-17T06:35:26;102572.72;;;11.45;100.00
10852;BME280;5479;52.046;6.314;2023-05-17T06:37:55;102574.16;;;12.28;100.00
10852;BME280;5479;52.046;6.314;2023-05-17T06:40:23;102579.31;;;12.54;100.00
10852;BME280;5479;52.046;6.314;2023-05-17T06:42:51;102585.09;;;12.42;100.00
10852;BME280;5479;52.046;6.314;2023-05-17T06:45:19;102582.13;;;12.49;100.00
10852;BME280;5479;52.046;6.314;2023-05-17T06:47:47;102580.88;;;13.45;100.00
10852;BME280;5479;52.046;6.314;2023-05-17T06:50:16;102575.06;;;13.96;100.00
10852;BME280;5479;52.046;6.314;2023-05-17T06:52:44;102571.84;;;14.26;100.00
10852;BME280;5479;52.046;6.314;2023-05-17T06:55:13;102582.44;;;13.89;96.02
10852;BME280;5479;52.046;6.314;2023-05-17T06:57:44;102590.72;;;13.22;100.00
10852;BME280;5479;52.046;6.314;2023-05-17T07:00:13;102594.59;;;12.26;100.00
10852;BME280;5479;52.046;6.314;2023-05-17T07:02:41;102591.81;;;12.05;100.00
10852;BME280;5479;52.046;6.314;2023-05-17T07:05:09;102584.25;;;13.06;100.00
10852;BME280;5479;52.046;6.314;2023-05-17T07:07:38;102589.91;;;12.99;100.00
10852;BME280;5479;52.046;6.314;2023-05-17T07:10:07;102594.31;;;13.21;98.02
10852;BME280;5479;52.046;6.314;2023-05-17T07:12:35;102591.25;;;13.30;98.72
10852;BME280;5479;52.046;6.314;2023-05-17T07:15:03;102590.47;;;13.69;92.09
10852;BME280;5479;52.046;6.314;2023-05-17T07:17:31;102596.38;;;13.75;84.55
10852;BME280;5479;52.046;6.314;2023-05-17T07:19:59;102599.56;;;13.83;81.75
10852;BME280;5479;52.046;6.314;2023-05-17T07:22:28;102598.91;;;13.38;86.60
10852;BME280;5479;52.046;6.314;2023-05-17T07:24:58;102610.53;;;12.92;87.66
10852;BME280;5479;52.046;6.314;2023-05-17T07:27:25;102607.53;;;13.01;88.40
10852;BME280;5479;52.046;6.314;2023-05-17T07:29:53;102611.72;;;12.85;87.76
10852;BME280;5479;52.046;6.314;2023-05-17T07:32:22;102622.00;;;12.73;92.36
10852;BME280;5479;52.046;6.314;2023-05-17T07:34:50;102625.66;;;12.47;89.03
10852;BME280;5479;52.046;6.314;2023-05-17T07:37:17;102622.22;;;12.66;82.54
10852;BME280;5479;52.046;6.314;2023-05-17T07:39:46;102623.47;;;12.80;86.67
10852;BME280;5479;52.046;6.314;2023-05-17T07:42:15;102615.56;;;12.78;88.95
10852;BME280;5479;52.046;6.314;2023-05-17T07:44:43;102621.75;;;13.22;83.36
10852;BME280;5479;52.046;6.314;2023-05-17T07:47:14;102620.03;;;13.43;78.32
10852;BME280;5479;52.046;6.314;2023-05-17T07:49:42;102612.03;;;14.22;71.11
10852;BME280;5479;52.046;6.314;2023-05-17T07:52:09;102619.88;;;14.06;67.94
10852;BME280;5479;52.046;6.314;2023-05-17T07:54:38;102624.34;;;14.82;63.67
10852;BME280;5479;52.046;6.314;2023-05-17T07:57:05;102628.63;;;15.03;61.58
10852;BME280;5479;52.046;6.314;2023-05-17T07:59:41;102634.28;;;15.50;60.04
10852;BME280;5479;52.046;6.314;2023-05-17T08:02:09;102641.63;;;14.55;60.13
10852;BME280;5479;52.046;6.314;2023-05-17T08:04:36;102647.38;;;14.45;61.99
10852;BME280;5479;52.046;6.314;2023-05-17T08:07:05;102643.53;;;13.94;62.69
10852;BME280;5479;52.046;6.314;2023-05-17T08:09:32;102658.53;;;13.54;66.21
10852;BME280;5479;52.046;6.314;2023-05-17T08:12:00;102645.25;;;12.89;69.98
10852;BME280;5479;52.046;6.314;2023-05-17T08:14:28;102646.25;;;12.63;74.21
10852;BME280;5479;52.046;6.314;2023-05-17T08:16:58;102641.19;;;13.66;68.43
10852;BME280;5479;52.046;6.314;2023-05-17T08:19:26;102648.75;;;13.35;69.16
10852;BME280;5479;52.046;6.314;2023-05-17T08:21:54;102661.75;;;13.20;70.65
10852;BME280;5479;52.046;6.314;2023-05-17T08:24:22;102653.53;;;13.47;67.81
10852;BME280;5479;52.046;6.314;2023-05-17T08:26:51;102647.34;;;14.66;62.52
10852;BME280;5479;52.046;6.314;2023-05-17T08:29:19;102647.19;;;15.23;57.03
10852;BME280;5479;52.046;6.314;2023-05-17T08:31:47;102636.81;;;14.63;59.05
10852;BME280;5479;52.046;6.314;2023-05-17T08:34:16;102645.19;;;15.09;60.70
10852;BME280;5479;52.046;6.314;2023-05-17T08:36:44;102636.50;;;16.26;54.18
10852;BME280;5479;52.046;6.314;2023-05-17T08:39:14;102641.81;;;16.10;55.25
10852;BME280;5479;52.046;6.314;2023-05-17T08:41:42;102647.56;;;15.51;54.52
10852;BME280;5479;52.046;6.314;2023-05-17T08:44:10;102649.00;;;15.04;54.63
10852;BME280;5479;52.046;6.314;2023-05-17T08:46:39;102647.09;;;14.52;57.70
10852;BME280;5479;52.046;6.314;2023-05-17T08:49:08;102667.22;;;13.79;59.12
10852;BME280;5479;52.046;6.314;2023-05-17T08:51:39;102668.25;;;12.90;64.35
10852;BME280;5479;52.046;6.314;2023-05-17T08:54:07;102666.38;;;12.92;66.04
10852;BME280;5479;52.046;6.314;2023-05-17T08:56:38;102670.97;;;13.12;66.86
10852;BME280;5479;52.046;6.314;2023-05-17T08:59:08;102674.72;;;13.70;62.95
10852;BME280;5479;52.046;6.314;2023-05-17T09:01:38;102666.47;;;14.16;58.95
10852;BME280;5479;52.046;6.314;2023-05-17T09:04:08;102664.69;;;13.97;57.80
10852;BME280;5479;52.046;6.314;2023-05-17T09:06:39;102655.59;;;14.97;58.78
10852;BME280;5479;52.046;6.314;2023-05-17T09:09:06;102662.31;;;14.87;53.35
10852;BME280;5479;52.046;6.314;2023-05-17T09:11:37;102669.16;;;15.11;53.84
10852;BME280;5479;52.046;6.314;2023-05-17T09:14:05;102655.41;;;15.72;52.99
10852;BME280;5479;52.046;6.314;2023-05-17T09:16:36;102671.38;;;15.37;54.74
10852;BME280;5479;52.046;6.314;2023-05-17T09:19:05;102674.84;;;14.27;54.66
10852;BME280;5479;52.046;6.314;2023-05-17T09:21:35;102658.81;;;15.39;53.42
10852;BME280;5479;52.046;6.314;2023-05-17T09:24:05;102662.16;;;15.96;49.11
10852;BME280;5479;52.046;6.314;2023-05-17T09:26:39;102657.97;;;16.57;48.61
10852;BME280;5479;52.046;6.314;2023-05-17T09:29:08;102659.00;;;16.70;48.78
10852;BME280;5479;52.046;6.314;2023-05-17T09:31:37;102668.03;;;16.52;49.68
10852;BME280;5479;52.046;6.314;2023-05-17T09:34:05;102661.66;;;16.22;49.39
10852;BME280;5479;52.046;6.314;2023-05-17T09:36:34;102665.94;;;15.57;51.86
10852;BME280;5479;52.046;6.314;2023-05-17T09:39:05;102673.66;;;14.14;52.10
10852;BME280;5479;52.046;6.314;2023-05-17T09:41:41;102667.47;;;14.52;52.10
10852;BME280;5479;52.046;6.314;2023-05-17T09:44:10;102669.34;;;15.42;51.30
10852;BME280;5479;52.046;6.314;2023-05-17T09:46:41;102668.13;;;15.14;50.40
10852;BME280;5479;52.046;6.314;2023-05-17T09:49:13;102667.84;;;15.01;52.52
10852;BME280;5479;52.046;6.314;2023-05-17T09:51:42;102674.19;;;14.61;50.79
10852;BME280;5479;52.046;6.314;2023-05-17T09:54:12;102678.63;;;14.42;51.90
10852;BME280;5479;52.046;6.314;2023-05-17T09:56:40;102666.78;;;15.22;49.45
10852;BME280;5479;52.046;6.314;2023-05-17T09:59:11;102670.41;;;15.57;47.97
10852;BME280;5479;52.046;6.314;2023-05-17T10:01:40;102662.38;;;16.41;46.21
10852;BME280;5479;52.046;6.314;2023-05-17T10:04:09;102671.34;;;15.20;48.22
10852;BME280;5479;52.046;6.314;2023-05-17T10:06:40;102673.78;;;14.31;49.63
10852;BME280;5479;52.046;6.314;2023-05-17T10:09:13;102676.19;;;14.37;49.36
10852;BME280;5479;52.046;6.314;2023-05-17T10:11:42;102666.53;;;15.45;47.91
10852;BME280;5479;52.046;6.314;2023-05-17T10:14:19;102659.38;;;16.14;46.03
10852;BME280;5479;52.046;6.314;2023-05-17T10:16:49;102657.31;;;18.05;43.03
10852;BME280;5479;52.046;6.314;2023-05-17T10:19:19;102667.13;;;16.84;43.69
10852;BME280;5479;52.046;6.314;2023-05-17T10:21:49;102662.06;;;16.47;46.50
10852;BME280;5479;52.046;6.314;2023-05-17T10:24:18;102669.47;;;16.42;45.91
10852;BME280;5479;52.046;6.314;2023-05-17T10:26:48;102673.56;;;15.29;47.43
10852;BME280;5479;52.046;6.314;2023-05-17T10:29:16;102672.41;;;15.35;47.07
10852;BME280;5479;52.046;6.314;2023-05-17T10:31:46;102670.38;;;15.04;48.15
10852;BME280;5479;52.046;6.314;2023-05-17T10:34:19;102660.72;;;16.06;46.72
10852;BME280;5479;52.046;6.314;2023-05-17T10:36:48;102666.66;;;15.78;47.96
10852;BME280;5479;52.046;6.314;2023-05-17T10:39:17;102664.44;;;15.52;47.80
10852;BME280;5479;52.046;6.314;2023-05-17T10:41:47;102678.97;;;14.73;50.96
10852;BME280;5479;52.046;6.314;2023-05-17T10:44:17;102675.41;;;14.35;49.60
10852;BME280;5479;52.046;6.314;2023-05-17T10:46:53;102656.03;;;14.50;50.29
10852;BME280;5479;52.046;6.314;2023-05-17T10:49:23;102660.22;;;15.82;48.11
10852;BME280;5479;52.046;6.314;2023-05-17T10:51:52;102668.28;;;15.98;47.11
10852;BME280;5479;52.046;6.314;2023-05-17T10:54:38;102658.25;;;15.51;48.21
10852;BME280;5479;52.046;6.314;2023-05-17T10:57:07;102671.88;;;14.54;50.05
10852;BME280;5479;52.046;6.314;2023-05-17T10:59:54;102662.53;;;14.82;50.76
10852;BME280;5479;52.046;6.314;2023-05-17T11:02:23;102657.13;;;16.07;48.91
10852;BME280;5479;52.046;6.314;2023-05-17T11:04:51;102659.78;;;16.72;45.70
10852;BME280;5479;52.046;6.314;2023-05-17T11:07:26;102646.78;;;17.43;44.11
10852;BME280;5479;52.046;6.314;2023-05-17T11:10:03;102655.22;;;17.06;43.52
10852;BME280;5479;52.046;6.314;2023-05-17T11:12:34;102643.50;;;17.38;43.26
10852;BME280;5479;52.046;6.314;2023-05-17T11:15:06;102636.63;;;18.22;41.89
10852;BME280;5479;52.046;6.314;2023-05-17T11:17:47;102634.69;;;17.95;42.47
10852;BME280;5479;52.046;6.314;2023-05-17T11:20:31;102644.63;;;17.34;43.42
10852;BME280;5479;52.046;6.314;2023-05-17T11:23:11;102645.00;;;16.17;46.35
10852;BME280;5479;52.046;6.314;2023-05-17T11:25:49;102639.56;;;15.51;49.23
10852;BME280;5479;52.046;6.314;2023-05-17T11:28:18;102643.66;;;14.87;51.02
10852;BME280;5479;52.046;6.314;2023-05-17T11:30:47;102649.22;;;15.18;51.52
10852;BME280;5479;52.046;6.314;2023-05-17T11:33:19;102649.22;;;15.54;49.56
10852;BME280;5479;52.046;6.314;2023-05-17T11:35:47;102645.63;;;15.19;48.45
10852;BME280;5479;52.046;6.314;2023-05-17T11:38:16;102645.78;;;15.33;47.05
10852;BME280;5479;52.046;6.314;2023-05-17T11:40:45;102634.31;;;16.00;47.05
10852;BME280;5479;52.046;6.314;2023-05-17T11:43:17;102632.31;;;17.61;43.76
10852;BME280;5479;52.046;6.314;2023-05-17T11:47:09;102637.31;;;17.67;43.94
10852;BME280;5479;52.046;6.314;2023-05-17T11:49:38;102637.66;;;17.16;43.43
10852;BME280;5479;52.046;6.314;2023-05-17T11:52:07;102640.94;;;15.93;47.37
10852;BME280;5479;52.046;6.314;2023-05-17T11:54:37;102646.72;;;15.32;47.15
10852;BME280;5479;52.046;6.314;2023-05-17T11:57:05;102645.06;;;14.94;48.01
10852;BME280;5479;52.046;6.314;2023-05-17T11:59:36;102646.50;;;15.37;47.77
10852;BME280;5479;52.046;6.314;2023-05-17T12:02:05;102654.03;;;16.14;45.18
10852;BME280;5479;52.046;6.314;2023-05-17T12:04:36;102643.34;;;16.47;43.96
10852;BME280;5479;52.046;6.314;2023-05-17T12:07:07;102648.59;;;15.49;46.02
10852;BME280;5479;52.046;6.314;2023-05-17T12:09:37;102657.78;;;14.89;45.40
10852;BME280;5479;52.046;6.314;2023-05-17T12:12:05;102653.84;;;14.96;45.13
10852;BME280;5479;52.046;6.314;2023-05-17T12:14:34;102649.41;;;15.32;44.65
10852;BME280;5479;52.046;6.314;2023-05-17T12:17:03;102639.84;;;15.62;44.56
10852;BME280;5479;52.046;6.314;2023-05-17T12:19:32;102641.28;;;15.69;43.63
10852;BME280;5479;52.046;6.314;2023-05-17T12:22:09;102645.91;;;15.66;44.80
10852;BME280;5479;52.046;6.314;2023-05-17T12:24:38;102644.44;;;15.25;45.16
10852;BME280;5479;52.046;6.314;2023-05-17T12:27:06;102637.19;;;15.80;44.19
10852;BME280;5479;52.046;6.314;2023-05-17T12:29:35;102641.50;;;15.99;43.88
10852;BME280;5479;52.046;6.314;2023-05-17T12:32:04;102633.38;;;16.18;43.33
10852;BME280;5479;52.046;6.314;2023-05-17T12:34:34;102637.66;;;15.70;43.46
10852;BME280;5479;52.046;6.314;2023-05-17T12:37:02;102630.41;;;15.90;43.70
10852;BME280;5479;52.046;6.314;2023-05-17T12:39:33;102630.88;;;15.98;43.51
10852;BME280;5479;52.046;6.314;2023-05-17T12:42:07;102634.81;;;15.91;43.52
10852;BME280;5479;52.046;6.314;2023-05-17T12:44:36;102634.13;;;16.20;44.25
10852;BME280;5479;52.046;6.314;2023-05-17T12:47:04;102632.38;;;16.36;43.39
10852;BME280;5479;52.046;6.314;2023-05-17T12:49:36;102636.81;;;15.70;44.55
10852;BME280;5479;52.046;6.314;2023-05-17T12:52:05;102627.16;;;15.50;45.78
10852;BME280;5479;52.046;6.314;2023-05-17T12:54:34;102633.03;;;15.74;44.55
10852;BME280;5479;52.046;6.314;2023-05-17T13:35:53;102615.00;;;15.26;46.25
10852;BME280;5479;52.046;6.314;2023-05-17T13:38:21;102609.81;;;15.06;46.45
10852;BME280;5479;52.046;6.314;2023-05-17T13:40:49;102600.19;;;15.38;45.99
10852;BME280;5479;52.046;6.314;2023-05-17T13:43:17;102608.16;;;15.56;45.05
10852;BME280;5479;52.046;6.314;2023-05-17T13:45:45;102600.09;;;15.39;44.76
10852;BME280;5479;52.046;6.314;2023-05-17T13:48:16;102597.69;;;15.52;44.91
10852;BME280;5479;52.046;6.314;2023-05-17T13:50:44;102593.25;;;15.85;44.70